Terminal Aerodrome Forecast
Issued by NWS Brownsville, TX

Home | Current Version | Previous Version | Text Only | Print | Product List | Glossary On
Versions: 1 2 3 4 5 6 7 8 9 10 11 12 13 14 15 16 17
000
FTUS44 KBRO 181723
TAFBRO
TAF
KBRO 181723Z 1818/1918 32011KT P6SM OVC012
      TEMPO 1818/1822 3SM -DZRA BR OVC009
     FM182200 34010KT 5SM -DZRA BR OVC009
     FM190400 33009KT 6SM -RADZ BR OVC005
      TEMPO 1911/1915 2SM SHRA BR OVC003=

USA.gov is the U.S. government's official web portal to all federal, state and local government web resources and services.